createdAt,value
2022-08-08T00:01:00.382Z,99399.91
2022-08-08T00:03:33.336Z,99397.78
2022-08-08T00:06:03.259Z,99402.31
2022-08-08T00:08:30.719Z,99402.06
2022-08-08T00:10:57.263Z,99401.59
2022-08-08T00:14:15.000Z,99394.31
2022-08-08T00:16:10.774Z,99401.84
2022-08-08T00:18:37.495Z,99397.13
2022-08-08T00:21:06.141Z,99392.06
2022-08-08T00:23:43.483Z,99390.97
2022-08-08T00:26:14.387Z,99398.25
2022-08-08T00:28:48.484Z,99393.47
2022-08-08T00:32:20.780Z,99395.44
2022-08-08T00:34:18.118Z,99392.88
2022-08-08T00:36:45.554Z,99397.16
2022-08-08T00:41:06.971Z,99392.56
2022-08-08T00:42:08.905Z,99408.09
2022-08-08T00:44:40.439Z,99405.69
2022-08-08T00:47:14.141Z,99401.81
2022-08-08T00:49:58.518Z,99398.22
2022-08-08T00:52:29.063Z,99385.84
2022-08-08T00:55:05.307Z,99395.91
2022-08-08T00:57:35.871Z,99380.78
2022-08-08T01:00:05.079Z,99392.38
2022-08-08T01:02:34.607Z,99384.25
2022-08-08T01:05:28.980Z,99382.50
2022-08-08T01:08:06.248Z,99391.06
2022-08-08T01:10:33.522Z,99394.78
2022-08-08T01:13:00.032Z,99395.03
2022-08-08T01:15:43.547Z,99392.66
2022-08-08T01:18:16.373Z,99390.09
2022-08-08T01:20:52.214Z,99390.75
2022-08-08T01:24:05.769Z,99384.41
2022-08-08T01:26:05.970Z,99383.81
2022-08-08T01:28:38.461Z,99384.56
2022-08-08T01:31:05.952Z,99378.09
2022-08-08T01:33:53.858Z,99377.84
2022-08-08T01:36:23.526Z,99374.22
2022-08-08T01:38:49.993Z,99380.25
2022-08-08T01:41:19.770Z,99382.88
2022-08-08T01:43:46.350Z,99375.19
2022-08-08T01:46:12.911Z,99379.13
2022-08-08T01:48:39.897Z,99388.00
2022-08-08T01:51:31.882Z,99388.81
2022-08-08T01:55:16.810Z,99394.38
2022-08-08T01:56:46.844Z,99396.84
2022-08-08T01:59:13.623Z,99393.56
2022-08-08T02:02:00.514Z,99399.25
2022-08-08T02:04:29.167Z,99402.06
2022-08-08T02:06:55.676Z,99395.69
2022-08-08T02:10:02.772Z,99400.47
2022-08-08T02:12:09.243Z,99410.66
2022-08-08T02:14:49.757Z,99402.97
2022-08-08T02:17:22.770Z,99406.13
2022-08-08T02:20:07.764Z,99408.84
2022-08-08T02:22:52.349Z,99412.44
2022-08-08T02:25:21.174Z,99400.06
2022-08-08T02:27:49.895Z,99407.97
2022-08-08T02:30:21.725Z,99403.78
2022-08-08T02:32:52.280Z,99404.38
2022-08-08T02:35:19.272Z,99409.06
2022-08-08T02:37:52.692Z,99398.50
2022-08-08T02:40:23.461Z,99391.00
2022-08-08T02:44:35.676Z,99392.78
2022-08-08T02:45:51.358Z,99404.00
2022-08-08T02:48:18.403Z,99398.91
2022-08-08T02:50:56.074Z,99405.53
2022-08-08T02:53:24.093Z,99402.31
2022-08-08T02:55:57.697Z,99402.84
2022-08-08T02:58:26.868Z,99407.72
2022-08-08T03:00:57.840Z,99404.81
2022-08-08T03:05:00.449Z,99409.81
2022-08-08T03:06:10.850Z,99420.66
2022-08-08T03:08:52.071Z,99417.53
2022-08-08T03:11:47.487Z,99410.09
2022-08-08T03:16:01.433Z,99424.28
2022-08-08T03:16:52.088Z,99416.63
2022-08-08T03:19:21.223Z,99415.34
2022-08-08T03:21:58.421Z,99414.41
2022-08-08T03:24:26.589Z,99407.91
2022-08-08T03:26:55.237Z,99393.84
2022-08-08T03:29:51.295Z,99406.47
2022-08-08T03:32:08.982Z,99402.25
2022-08-08T03:34:35.399Z,99412.63
2022-08-08T03:37:10.675Z,99410.94
2022-08-08T03:39:51.629Z,99406.75
2022-08-08T03:42:30.406Z,99416.81
2022-08-08T03:44:57.520Z,99419.22
2022-08-08T03:47:25.287Z,99412.28
2022-08-08T03:50:06.284Z,99408.22
2022-08-08T03:52:44.415Z,99421.75
2022-08-08T03:55:56.313Z,99419.97
2022-08-08T03:58:34.698Z,99426.56
2022-08-08T04:01:01.687Z,99430.66
2022-08-08T04:03:58.275Z,99431.56
2022-08-08T04:06:15.811Z,99429.97
2022-08-08T04:08:46.073Z,99434.25
2022-08-08T04:11:17.662Z,99429.22
2022-08-08T04:14:33.000Z,99435.47
2022-08-08T04:16:40.704Z,99425.84
2022-08-08T04:19:23.832Z,99429.94
2022-08-08T04:21:51.758Z,99424.69
2022-08-08T04:24:19.547Z,99429.25
2022-08-08T04:26:57.114Z,99433.03
2022-08-08T04:29:24.807Z,99434.84
2022-08-08T04:31:58.717Z,99434.72
2022-08-08T04:34:26.861Z,99435.53
2022-08-08T04:36:58.582Z,99434.78
2022-08-08T04:40:03.958Z,99446.09
2022-08-08T04:42:15.991Z,99454.16
2022-08-08T04:44:43.545Z,99463.59
2022-08-08T04:47:14.684Z,99462.09
2022-08-08T04:50:00.885Z,99459.00
2022-08-08T04:52:33.882Z,99462.84
2022-08-08T04:55:00.675Z,99467.38
2022-08-08T04:57:28.110Z,99460.53
2022-08-08T04:59:57.920Z,99469.84
2022-08-08T05:02:30.629Z,99462.59
2022-08-08T05:05:00.692Z,99464.88
2022-08-08T05:07:38.017Z,99459.16
2022-08-08T05:10:12.510Z,99454.47
2022-08-08T05:12:53.666Z,99446.59
2022-08-08T05:16:47.898Z,99445.94
2022-08-08T05:18:13.076Z,99457.63
2022-08-08T05:20:48.477Z,99456.81
2022-08-08T05:23:18.551Z,99460.03
2022-08-08T05:25:46.725Z,99460.53
2022-08-08T05:28:13.358Z,99457.97
2022-08-08T05:30:41.463Z,99461.44
2022-08-08T05:33:13.901Z,99453.91
2022-08-08T05:35:43.354Z,99462.13
2022-08-08T05:38:30.421Z,99464.63
2022-08-08T05:40:58.276Z,99468.41
2022-08-08T05:44:02.788Z,99466.88
2022-08-08T05:46:12.055Z,99480.13
2022-08-08T05:48:38.408Z,99482.13
2022-08-08T05:51:13.452Z,99483.22
2022-08-08T05:53:56.140Z,99485.53
2022-08-08T05:56:28.850Z,99494.56
2022-08-08T05:58:58.226Z,99492.16
2022-08-08T06:01:51.230Z,99497.47
2022-08-08T06:04:23.727Z,99490.53
2022-08-08T06:06:50.571Z,99489.25
2022-08-08T06:09:59.177Z,99491.50
2022-08-08T06:12:03.627Z,99486.91
2022-08-08T06:14:30.122Z,99492.81
2022-08-08T06:16:57.001Z,99497.06
2022-08-08T06:19:25.375Z,99502.72
2022-08-08T06:21:57.779Z,99494.25
2022-08-08T06:24:31.077Z,99514.91
2022-08-08T06:27:02.537Z,99502.28
2022-08-08T06:29:56.844Z,99498.75
2022-08-08T06:32:15.467Z,99509.13
2022-08-08T06:34:43.579Z,99507.28
2022-08-08T06:37:25.296Z,99508.34
2022-08-08T06:39:56.096Z,99511.84
2022-08-08T06:42:23.248Z,99507.03
2022-08-08T06:44:49.701Z,99511.38
2022-08-08T06:47:16.134Z,99517.69
2022-08-08T06:49:56.745Z,99510.34
2022-08-08T06:52:23.537Z,99518.44
2022-08-08T06:54:54.370Z,99521.94
2022-08-08T06:57:20.786Z,99521.06
2022-08-08T07:00:10.364Z,99515.38
2022-08-08T07:02:33.897Z,99529.72
2022-08-08T07:05:02.801Z,99526.59
2022-08-08T07:07:32.993Z,99527.59
2022-08-08T07:10:03.707Z,99520.75
2022-08-08T07:12:34.783Z,99520.31
2022-08-08T07:15:01.369Z,99531.63
2022-08-08T07:17:40.029Z,99531.50
2022-08-08T07:20:17.220Z,99544.84
2022-08-08T07:22:43.908Z,99542.84
2022-08-08T07:25:14.383Z,99535.84
2022-08-08T07:28:00.806Z,99532.59
2022-08-08T07:30:31.067Z,99549.84
2022-08-08T07:32:59.674Z,99552.16
2022-08-08T07:35:27.820Z,99546.25
2022-08-08T07:38:04.414Z,99544.69
2022-08-08T07:40:36.047Z,99529.78
2022-08-08T07:43:09.688Z,99531.97
2022-08-08T07:46:04.815Z,99541.31
2022-08-08T07:48:23.585Z,99540.81
2022-08-08T07:50:50.702Z,99551.38
2022-08-08T07:53:52.359Z,99549.38
2022-08-08T07:56:03.857Z,99557.72
2022-08-08T07:58:30.438Z,99553.97
2022-08-08T08:00:58.013Z,99554.34
2022-08-08T08:03:28.465Z,99551.81
2022-08-08T08:05:55.040Z,99559.97
2022-08-08T08:08:25.211Z,99566.00
2022-08-08T08:10:53.214Z,99566.31
2022-08-08T08:13:25.622Z,99572.88
2022-08-08T08:16:08.618Z,99583.69
2022-08-08T08:18:39.066Z,99584.72
2022-08-08T08:21:18.790Z,99574.84
2022-08-08T08:23:51.192Z,99583.63
2022-08-08T08:26:18.092Z,99591.16
2022-08-08T08:28:54.376Z,99591.69
2022-08-08T08:31:21.855Z,99588.97
2022-08-08T08:33:50.659Z,99593.94
2022-08-08T08:36:21.914Z,99598.66
2022-08-08T08:38:53.039Z,99604.41
2022-08-08T08:41:20.255Z,99582.16
2022-08-08T08:43:50.361Z,99590.44
2022-08-08T08:46:19.133Z,99585.44
2022-08-08T08:48:49.640Z,99581.41
2022-08-08T08:51:16.367Z,99580.44
2022-08-08T08:53:58.894Z,99583.22
2022-08-08T08:56:27.710Z,99578.03
2022-08-08T08:58:54.132Z,99576.28
2022-08-08T09:01:20.877Z,99579.00
2022-08-08T09:03:50.961Z,99573.19
2022-08-08T09:06:26.568Z,99570.59
2022-08-08T09:08:55.716Z,99560.59
2022-08-08T09:11:22.255Z,99573.94
2022-08-08T09:13:49.792Z,99561.88
2022-08-08T09:16:20.181Z,99562.03
2022-08-08T09:18:55.658Z,99556.84
2022-08-08T09:22:01.167Z,99546.94
2022-08-08T09:24:08.594Z,99549.91
2022-08-08T09:26:40.231Z,99557.59
2022-08-08T09:29:13.937Z,99552.41
2022-08-08T09:31:56.455Z,99551.06
2022-08-08T09:34:34.208Z,99538.41
2022-08-08T09:37:37.368Z,99543.34
2022-08-08T09:39:48.176Z,99557.94
2022-08-08T09:45:08.060Z,99569.06
2022-08-08T09:48:09.371Z,99571.97
2022-08-08T09:50:34.441Z,99576.41
2022-08-08T09:53:23.480Z,99573.91
2022-08-08T09:56:04.986Z,99583.38
2022-08-08T09:58:41.281Z,99578.78
2022-08-08T10:01:15.486Z,99582.16
2022-08-08T10:03:57.533Z,99574.75
2022-08-08T10:06:29.626Z,99593.03
2022-08-08T10:08:56.321Z,99588.81
2022-08-08T10:12:26.278Z,99586.06
2022-08-08T10:14:27.583Z,99580.00
2022-08-08T10:16:58.409Z,99565.09
2022-08-08T10:19:25.065Z,99571.38
2022-08-08T10:21:53.328Z,99571.97
2022-08-08T10:24:28.486Z,99574.63
2022-08-08T10:26:59.327Z,99570.72
2022-08-08T10:29:31.146Z,99579.47
2022-08-08T10:32:10.642Z,99595.72
2022-08-08T10:34:39.443Z,99605.09
2022-08-08T10:37:06.340Z,99601.47
2022-08-08T10:39:53.378Z,99603.16
2022-08-08T10:42:21.633Z,99604.06
2022-08-08T10:44:53.849Z,99607.41
2022-08-08T10:47:21.695Z,99603.75
2022-08-08T10:50:01.337Z,99605.44
2022-08-08T10:52:30.665Z,99603.75
2022-08-08T10:54:57.557Z,99604.91
2022-08-08T10:57:41.406Z,99608.19
2022-08-08T11:00:11.146Z,99612.44
2022-08-08T11:02:38.639Z,99613.28
2022-08-08T11:05:14.696Z,99607.84
2022-08-08T11:08:37.756Z,99612.84
2022-08-08T11:10:29.215Z,99619.50
2022-08-08T11:13:18.645Z,99609.81
2022-08-08T11:15:52.399Z,99615.09
2022-08-08T11:18:27.827Z,99611.78
2022-08-08T11:20:57.663Z,99617.56
2022-08-08T11:23:25.208Z,99609.44
2022-08-08T11:25:58.597Z,99599.84
2022-08-08T11:28:25.787Z,99608.06
2022-08-08T11:30:52.829Z,99606.41
2022-08-08T11:33:19.768Z,99614.06
2022-08-08T11:35:46.242Z,99610.38
2022-08-08T11:38:36.587Z,99615.47
2022-08-08T11:41:01.616Z,99615.84
2022-08-08T11:43:39.467Z,99611.47
2022-08-08T11:46:17.314Z,99610.81
2022-08-08T11:48:47.164Z,99622.13
2022-08-08T11:51:38.165Z,99606.69
2022-08-08T11:54:02.056Z,99597.53
2022-08-08T11:56:29.214Z,99608.19
2022-08-08T11:58:55.983Z,99614.91
2022-08-08T12:01:22.686Z,99615.59
2022-08-08T12:03:49.820Z,99613.97
2022-08-08T12:06:17.357Z,99616.56
2022-08-08T12:08:44.116Z,99614.75
2022-08-08T12:11:12.475Z,99619.34
2022-08-08T12:14:03.977Z,99624.44
2022-08-08T12:16:30.190Z,99619.16
2022-08-08T12:19:02.153Z,99618.13
2022-08-08T12:22:00.422Z,99624.94
2022-08-08T12:24:18.912Z,99623.41
2022-08-08T12:26:47.421Z,99619.19
2022-08-08T12:29:16.554Z,99624.38
2022-08-08T12:31:53.536Z,99632.69
2022-08-08T12:34:20.867Z,99623.13
2022-08-08T12:36:59.775Z,99623.41
2022-08-08T12:39:56.464Z,99619.03
2022-08-08T12:42:33.065Z,99616.69
2022-08-08T12:45:00.725Z,99618.34
2022-08-08T12:47:58.001Z,99619.22
2022-08-08T12:50:15.025Z,99619.50
2022-08-08T12:52:41.736Z,99614.84
2022-08-08T12:55:09.432Z,99615.13
2022-08-08T12:57:49.853Z,99618.41
2022-08-08T13:00:23.362Z,99609.06
2022-08-08T13:03:00.988Z,99611.59
2022-08-08T13:06:03.144Z,99609.78
2022-08-08T13:08:15.784Z,99602.13
2022-08-08T13:10:55.674Z,99599.34
2022-08-08T13:13:24.038Z,99604.69
2022-08-08T13:15:54.755Z,99589.75
2022-08-08T13:18:22.175Z,99592.44
2022-08-08T13:20:54.085Z,99595.66
2022-08-08T13:23:30.609Z,99587.06
2022-08-08T13:26:04.303Z,99589.31
2022-08-08T13:28:42.290Z,99576.03
2022-08-08T13:31:09.397Z,99573.53
2022-08-08T13:33:42.845Z,99570.44
2022-08-08T13:36:10.056Z,99573.81
2022-08-08T13:38:36.641Z,99571.72
2022-08-08T13:41:03.631Z,99577.38
2022-08-08T13:43:31.164Z,99574.97
2022-08-08T13:45:57.888Z,99574.69
2022-08-08T13:48:28.761Z,99576.63
2022-08-08T13:51:24.569Z,99570.69
2022-08-08T13:53:53.298Z,99573.38
2022-08-08T13:56:27.307Z,99574.34
2022-08-08T13:58:56.025Z,99572.09
2022-08-08T14:01:32.761Z,99576.19
2022-08-08T14:04:11.204Z,99572.94
2022-08-08T14:06:44.592Z,99564.34
2022-08-08T14:09:24.814Z,99564.22
2022-08-08T14:11:56.699Z,99553.63
2022-08-08T14:14:26.158Z,99566.78
2022-08-08T14:16:55.312Z,99565.38
2022-08-08T14:19:54.213Z,99559.72
2022-08-08T14:22:08.804Z,99552.09
2022-08-08T14:24:36.575Z,99552.09
2022-08-08T14:27:07.848Z,99550.13
2022-08-08T14:29:39.438Z,99545.84
2022-08-08T14:32:11.455Z,99538.94
2022-08-08T14:34:43.228Z,99544.59
2022-08-08T14:37:10.149Z,99539.41
2022-08-08T14:39:47.480Z,99533.78
2022-08-08T14:42:21.537Z,99545.59
2022-08-08T14:44:53.389Z,99534.16
2022-08-08T14:47:21.633Z,99544.59
2022-08-08T14:50:06.828Z,99531.22
2022-08-08T14:52:34.866Z,99531.47
2022-08-08T14:55:01.308Z,99529.47
2022-08-08T14:58:02.389Z,99537.16
2022-08-08T15:00:14.898Z,99532.50
2022-08-08T15:02:58.962Z,99521.94
2022-08-08T15:05:42.779Z,99533.34
2022-08-08T15:08:21.923Z,99527.28
2022-08-08T15:10:49.687Z,99522.00
2022-08-08T15:13:16.418Z,99512.50
2022-08-08T15:16:01.218Z,99514.91
2022-08-08T15:18:29.803Z,99512.75
2022-08-08T15:20:56.761Z,99499.28
2022-08-08T15:23:23.297Z,99506.41
2022-08-08T15:25:59.860Z,99505.00
2022-08-08T15:28:33.790Z,99501.06
2022-08-08T15:31:01.433Z,99503.59
2022-08-08T15:33:38.252Z,99489.78
2022-08-08T15:36:18.669Z,99494.31
2022-08-08T15:38:50.373Z,99490.63
2022-08-08T15:41:17.440Z,99492.88
2022-08-08T15:44:01.019Z,99494.72
2022-08-08T15:46:34.695Z,99501.31
2022-08-08T15:49:01.727Z,99503.75
2022-08-08T15:51:36.867Z,99502.16
2022-08-08T15:54:03.677Z,99497.97
2022-08-08T15:56:30.617Z,99490.66
2022-08-08T15:58:57.295Z,99484.44
2022-08-08T16:01:23.766Z,99483.75
2022-08-08T16:04:07.526Z,99478.25
2022-08-08T16:06:40.228Z,99481.25
2022-08-08T16:13:04.571Z,99482.25
2022-08-08T16:13:07.285Z,99491.00
2022-08-08T16:14:40.099Z,99488.03
2022-08-08T16:17:38.758Z,99493.06
2022-08-08T16:20:09.960Z,99491.31
2022-08-08T16:22:41.765Z,99489.81
2022-08-08T16:25:08.658Z,99485.59
2022-08-08T16:27:35.186Z,99493.47
2022-08-08T16:30:14.084Z,99492.94
2022-08-08T16:32:42.668Z,99485.72
2022-08-08T16:35:09.136Z,99485.22
2022-08-08T16:37:35.675Z,99479.81
2022-08-08T16:40:03.750Z,99481.66
2022-08-08T16:42:31.630Z,99475.34
2022-08-08T16:45:01.368Z,99497.56
2022-08-08T16:47:41.696Z,99489.66
2022-08-08T16:50:13.215Z,99487.03
2022-08-08T16:55:04.693Z,99498.34
2022-08-08T16:55:52.383Z,99486.16
2022-08-08T16:58:17.771Z,99490.25
2022-08-08T17:00:48.731Z,99487.53
2022-08-08T17:03:24.700Z,99484.09
2022-08-08T17:06:01.576Z,99492.00
2022-08-08T17:08:28.666Z,99497.03
2022-08-08T17:10:58.563Z,99498.25
2022-08-08T17:13:50.398Z,99504.22
2022-08-08T17:16:24.417Z,99508.72
2022-08-08T17:18:51.668Z,99507.03
2022-08-08T17:21:18.529Z,99509.19
2022-08-08T17:23:58.179Z,99512.34
2022-08-08T17:26:28.994Z,99517.38
2022-08-08T17:28:56.008Z,99512.94
2022-08-08T17:31:44.644Z,99523.03
2022-08-08T17:34:35.900Z,99521.69
2022-08-08T17:37:03.451Z,99521.41
2022-08-08T17:40:03.092Z,99530.25
2022-08-08T17:42:19.802Z,99530.94
2022-08-08T17:44:46.520Z,99527.94
2022-08-08T17:47:23.324Z,99534.53
2022-08-08T17:49:51.753Z,99535.88
2022-08-08T17:52:19.874Z,99544.22
2022-08-08T17:54:51.811Z,99549.59
2022-08-08T17:57:23.044Z,99546.16
2022-08-08T17:59:51.677Z,99543.34
2022-08-08T18:02:26.055Z,99544.22
2022-08-08T18:05:00.532Z,99560.31
2022-08-08T18:08:03.541Z,99562.16
2022-08-08T18:10:14.203Z,99567.25
2022-08-08T18:12:40.673Z,99566.91
2022-08-08T18:15:11.472Z,99574.53
2022-08-08T18:18:27.166Z,99573.19
2022-08-08T18:20:43.025Z,99578.97
2022-08-08T18:23:15.209Z,99576.31
2022-08-08T18:25:41.957Z,99584.88
2022-08-08T18:28:13.212Z,99588.78
2022-08-08T18:30:40.995Z,99586.38
2022-08-08T18:33:10.722Z,99593.75
2022-08-08T18:35:54.335Z,99592.91
2022-08-08T18:38:29.868Z,99601.41
2022-08-08T18:40:56.525Z,99595.59
2022-08-08T18:43:22.933Z,99604.66
2022-08-08T18:46:52.632Z,99604.34
2022-08-08T18:48:38.587Z,99613.75
2022-08-08T18:51:27.121Z,99613.53
2022-08-08T18:54:02.825Z,99618.97
2022-08-08T18:56:32.688Z,99625.25
2022-08-08T18:59:01.440Z,99622.38
2022-08-08T19:02:25.507Z,99618.84
2022-08-08T19:04:14.794Z,99629.94
2022-08-08T19:06:41.571Z,99624.63
2022-08-08T19:09:14.824Z,99635.84
2022-08-08T19:11:46.674Z,99644.38
2022-08-08T19:14:13.505Z,99631.50
2022-08-08T19:16:47.593Z,99633.00
2022-08-08T19:19:14.620Z,99646.03
2022-08-08T19:21:48.582Z,99638.59
2022-08-08T19:24:39.238Z,99640.28
2022-08-08T19:27:05.334Z,99637.44
2022-08-08T19:29:32.407Z,99642.88
2022-08-08T19:32:02.479Z,99644.59
2022-08-08T19:34:41.268Z,99653.53
2022-08-08T19:37:08.151Z,99654.72
2022-08-08T19:39:43.295Z,99645.78
2022-08-08T19:42:12.097Z,99656.78
2022-08-08T19:44:46.443Z,99649.13
2022-08-08T19:47:24.572Z,99649.19
2022-08-08T19:49:59.359Z,99649.56
2022-08-08T19:52:35.303Z,99648.09
2022-08-08T19:55:05.160Z,99654.69
2022-08-08T19:57:32.658Z,99650.91
2022-08-08T20:00:02.176Z,99643.16
2022-08-08T20:02:38.459Z,99646.97
2022-08-08T20:05:05.147Z,99649.75
2022-08-08T20:08:28.826Z,99651.94
2022-08-08T20:10:18.659Z,99651.03
2022-08-08T20:14:10.121Z,99643.13
2022-08-08T20:15:52.364Z,99651.88
2022-08-08T20:18:20.009Z,99648.25
2022-08-08T20:20:51.099Z,99647.13
2022-08-08T20:23:17.493Z,99657.19
2022-08-08T20:25:43.934Z,99650.09
2022-08-08T20:28:18.753Z,99650.75
2022-08-08T20:30:56.365Z,99651.47
2022-08-08T20:35:57.089Z,99645.91
2022-08-08T20:38:32.010Z,99647.19
2022-08-08T20:40:59.922Z,99646.03
2022-08-08T20:43:43.581Z,99649.91
2022-08-08T20:46:13.597Z,99650.19
2022-08-08T20:48:41.004Z,99648.03
2022-08-08T20:51:07.502Z,99640.31
2022-08-08T20:53:59.755Z,99649.56
2022-08-08T20:56:20.737Z,99642.19
2022-08-08T20:59:05.655Z,99653.44
2022-08-08T21:01:32.705Z,99651.78
2022-08-08T21:04:14.223Z,99646.81
2022-08-08T21:06:51.975Z,99649.28
2022-08-08T21:09:19.993Z,99652.94
2022-08-08T21:11:51.198Z,99653.09
2022-08-08T21:14:18.808Z,99653.25
2022-08-08T21:17:00.407Z,99648.13
2022-08-08T21:19:44.126Z,99647.63
2022-08-08T21:22:12.993Z,99652.03
2022-08-08T21:24:41.841Z,99652.38
2022-08-08T21:28:05.284Z,99655.34
2022-08-08T21:30:16.267Z,99657.31
2022-08-08T21:32:51.178Z,99654.19
2022-08-08T21:36:16.192Z,99654.75
2022-08-08T21:40:57.223Z,99661.84
2022-08-08T21:43:23.618Z,99658.06
2022-08-08T21:48:05.442Z,99656.25
2022-08-08T21:48:41.336Z,99661.06
2022-08-08T21:51:10.962Z,99663.25
2022-08-08T21:54:36.228Z,99658.94
2022-08-08T21:56:33.928Z,99661.97
2022-08-08T21:59:05.612Z,99671.75
2022-08-08T22:01:40.692Z,99662.25
2022-08-08T22:04:08.193Z,99656.25
2022-08-08T22:06:40.285Z,99663.28
2022-08-08T22:09:08.134Z,99665.13
2022-08-08T22:11:51.368Z,99661.69
2022-08-08T22:14:21.913Z,99660.50
2022-08-08T22:16:53.384Z,99667.47
2022-08-08T22:19:23.942Z,99661.50
2022-08-08T22:21:53.173Z,99649.28
2022-08-08T22:24:23.823Z,99653.44
2022-08-08T22:27:02.268Z,99655.78
2022-08-08T22:29:59.353Z,99659.75
2022-08-08T22:32:18.233Z,99658.19
2022-08-08T22:34:51.288Z,99663.34
2022-08-08T22:37:49.981Z,99658.50
2022-08-08T22:40:04.899Z,99653.00
2022-08-08T22:42:34.499Z,99665.97
2022-08-08T22:45:01.756Z,99656.84
2022-08-08T22:47:37.925Z,99664.97
2022-08-08T22:50:04.961Z,99660.50
2022-08-08T22:52:36.605Z,99664.38
2022-08-08T22:55:05.024Z,99669.91
2022-08-08T22:57:43.694Z,99658.94
2022-08-08T23:00:15.621Z,99664.59
2022-08-08T23:02:44.699Z,99665.09
2022-08-08T23:05:16.808Z,99671.28
2022-08-08T23:07:57.053Z,99670.06
2022-08-08T23:10:25.515Z,99662.44
2022-08-08T23:12:53.955Z,99663.47
2022-08-08T23:16:40.893Z,99668.13
2022-08-08T23:18:06.965Z,99671.31
2022-08-08T23:20:34.234Z,99656.03
2022-08-08T23:23:00.756Z,99667.38
2022-08-08T23:25:27.374Z,99671.13
2022-08-08T23:27:54.875Z,99670.81
2022-08-08T23:30:21.322Z,99671.88
2022-08-08T23:32:48.308Z,99669.16
2022-08-08T23:35:17.276Z,99666.91
2022-08-08T23:37:54.174Z,99672.44
2022-08-08T23:40:31.482Z,99671.19
2022-08-08T23:42:58.245Z,99668.41
2022-08-08T23:49:02.104Z,99672.84
2022-08-08T23:49:05.807Z,99667.41
2022-08-08T23:51:02.824Z,99665.41
2022-08-08T23:54:05.091Z,99669.31
2022-08-08T23:56:24.064Z,99668.22
2022-08-08T23:59:02.412Z,99667.69
